Time;durP1;ratioP1;P1;durP2;ratioP2;P2;SDS_P1;SDS_P2;PMS_P1;PMS_P2;Temp;Humidity;BMP_temperature;BMP_pressure;BME280_temperature;BME280_humidity;BME280_pressure;Samples;Min_cycle;Max_cycle;Signal;HPM_P1;HPM_P2
2023/07/31 00:01:01;;;;;;;5.27;2.37;;;14.60;99.90;;;;;;5003370;28;20704;-68
2023/07/31 00:03:28;;;;;;;3.37;2.00;;;14.60;99.90;;;;;;4980975;28;20205;-68
2023/07/31 00:05:56;;;;;;;3.10;2.50;;;14.70;99.90;;;;;;4999661;28;20235;-66
2023/07/31 00:08:23;;;;;;;4.03;2.03;;;14.70;99.90;;;;;;4997550;28;20204;-67
2023/07/31 00:10:52;;;;;;;3.57;2.17;;;14.70;99.90;;;;;;5006905;28;20204;-68
2023/07/31 00:13:19;;;;;;;3.67;2.10;;;14.70;99.90;;;;;;4995433;28;20201;-65
2023/07/31 00:15:46;;;;;;;3.50;2.20;;;14.70;99.90;;;;;;5006520;28;20204;-68
2023/07/31 00:18:13;;;;;;;5.87;2.37;;;14.70;99.90;;;;;;4986794;28;20209;-66
2023/07/31 00:20:39;;;;;;;3.77;2.37;;;14.70;99.90;;;;;;4979790;28;20201;-68
2023/07/31 00:23:08;;;;;;;3.97;2.00;;;14.80;99.90;;;;;;5003126;28;20666;-65
2023/07/31 00:25:34;;;;;;;5.13;2.20;;;14.80;99.90;;;;;;5009463;28;20326;-68
2023/07/31 00:28:01;;;;;;;6.47;2.07;;;14.80;99.90;;;;;;5006516;28;20216;-68
2023/07/31 00:30:29;;;;;;;7.30;2.30;;;14.80;99.90;;;;;;4986728;28;20204;-67
2023/07/31 00:32:56;;;;;;;5.67;1.90;;;14.80;99.90;;;;;;4987215;28;20232;-67
2023/07/31 00:35:22;;;;;;;9.00;2.23;;;14.80;99.90;;;;;;4999762;28;20275;-68
2023/07/31 00:37:49;;;;;;;3.93;1.97;;;14.80;99.90;;;;;;5001312;28;20204;-69
2023/07/31 00:40:17;;;;;;;3.17;2.07;;;14.90;99.90;;;;;;4989144;28;20204;-65
2023/07/31 00:42:44;;;;;;;6.73;2.87;;;14.90;99.90;;;;;;4993729;28;20899;-68
2023/07/31 00:45:11;;;;;;;4.97;1.90;;;14.90;99.90;;;;;;4994104;28;20205;-65
2023/07/31 00:47:38;;;;;;;4.20;2.10;;;14.90;99.90;;;;;;4995485;28;22066;-68
2023/07/31 00:50:06;;;;;;;4.13;2.03;;;14.90;99.90;;;;;;5005707;28;20660;-65
2023/07/31 00:52:33;;;;;;;6.73;1.53;;;14.90;99.90;;;;;;4976568;28;20189;-68
2023/07/31 00:55:01;;;;;;;9.27;1.90;;;14.80;99.90;;;;;;4997680;28;20315;-67
2023/07/31 00:57:29;;;;;;;6.03;2.00;;;14.80;99.90;;;;;;4983208;28;20185;-68
2023/07/31 00:59:56;;;;;;;5.90;1.60;;;14.90;99.90;;;;;;5001587;28;20326;-69
2023/07/31 01:02:23;;;;;;;4.90;1.83;;;14.80;99.90;;;;;;4997167;28;20263;-68
2023/07/31 01:04:49;;;;;;;5.80;1.83;;;14.80;99.90;;;;;;4975942;28;20554;-66
2023/07/31 01:07:23;;;;;;;5.57;1.70;;;14.80;99.90;;;;;;4995223;28;20220;-65
2023/07/31 01:10:00;;;;;;;2.80;1.80;;;14.80;99.90;;;;;;5004738;28;20708;-68
2023/07/31 01:12:31;;;;;;;4.17;1.73;;;14.80;99.90;;;;;;4985460;28;20196;-68
2023/07/31 01:15:06;;;;;;;2.93;1.77;;;14.80;99.90;;;;;;4994500;28;20213;-69
2023/07/31 01:17:33;;;;;;;4.63;2.13;;;14.80;99.90;;;;;;4992908;28;21356;-66
2023/07/31 01:20:03;;;;;;;5.40;2.40;;;14.80;99.90;;;;;;5002435;28;20221;-68
2023/07/31 01:22:57;;;;;;;4.93;1.80;;;14.80;99.90;;;;;;5001574;28;20181;-67
2023/07/31 01:25:38;;;;;;;3.93;2.10;;;14.80;99.90;;;;;;4993733;28;20248;-68
2023/07/31 01:28:14;;;;;;;3.33;1.80;;;14.80;99.90;;;;;;5004438;28;20227;-65
2023/07/31 01:30:45;;;;;;;5.03;2.23;;;14.80;99.90;;;;;;4998381;28;20192;-68
2023/07/31 01:33:12;;;;;;;3.97;2.07;;;14.80;99.90;;;;;;4995754;28;20203;-65
2023/07/31 01:35:39;;;;;;;6.67;2.10;;;14.80;99.90;;;;;;4987832;28;20192;-67
2023/07/31 01:38:07;;;;;;;8.30;2.13;;;14.80;99.90;;;;;;4989226;28;20201;-65
2023/07/31 01:40:34;;;;;;;4.27;2.00;;;14.70;99.90;;;;;;4994450;28;20793;-68
2023/07/31 01:43:01;;;;;;;4.53;1.63;;;14.70;99.90;;;;;;4983559;28;20193;-69
2023/07/31 01:45:30;;;;;;;10.03;2.40;;;14.80;99.90;;;;;;4986413;28;20773;-67
2023/07/31 01:47:57;;;;;;;5.90;1.97;;;14.70;99.90;;;;;;4997163;28;20229;-66
2023/07/31 01:50:24;;;;;;;5.63;2.13;;;14.70;99.90;;;;;;4971635;28;20205;-68
2023/07/31 01:52:51;;;;;;;6.77;2.60;;;14.70;99.90;;;;;;4984977;28;20204;-67
2023/07/31 01:55:18;;;;;;;6.00;1.90;;;14.70;99.90;;;;;;4998162;28;20719;-64
2023/07/31 01:57:45;;;;;;;5.40;1.80;;;14.70;99.90;;;;;;4993857;28;20557;-69
2023/07/31 02:00:12;;;;;;;6.03;2.40;;;14.70;99.90;;;;;;4985611;28;20211;-66
2023/07/31 02:02:40;;;;;;;4.50;2.37;;;14.70;99.90;;;;;;5003542;28;20969;-68
2023/07/31 02:05:07;;;;;;;8.50;2.47;;;14.70;99.90;;;;;;5004113;28;20946;-65
2023/07/31 02:07:34;;;;;;;4.93;2.50;;;14.70;99.90;;;;;;4980802;28;20228;-68
2023/07/31 02:10:01;;;;;;;7.00;2.33;;;14.70;99.90;;;;;;5005048;28;20224;-68
2023/07/31 02:12:30;;;;;;;4.20;1.90;;;14.70;99.90;;;;;;5000926;28;20315;-67
2023/07/31 02:14:57;;;;;;;4.50;2.77;;;14.70;99.90;;;;;;5004765;28;20224;-68
2023/07/31 02:17:24;;;;;;;8.83;3.00;;;14.70;99.90;;;;;;4973261;28;20873;-67
2023/07/31 02:19:52;;;;;;;8.50;2.20;;;14.70;99.90;;;;;;4997037;28;20200;-68
2023/07/31 02:22:20;;;;;;;4.03;2.40;;;14.80;99.90;;;;;;4988661;28;20216;-68
2023/07/31 02:24:47;;;;;;;4.63;2.33;;;14.70;99.90;;;;;;5004607;28;20311;-68
2023/07/31 02:27:13;;;;;;;5.53;2.20;;;14.70;99.90;;;;;;5000174;28;20208;-67
2023/07/31 02:29:40;;;;;;;4.30;2.30;;;14.80;99.90;;;;;;4988116;28;20205;-66
2023/07/31 02:32:07;;;;;;;5.37;2.20;;;14.80;99.90;;;;;;4999166;28;20616;-65
2023/07/31 02:34:34;;;;;;;5.30;1.90;;;14.80;99.90;;;;;;4989677;28;20735;-68
2023/07/31 02:37:02;;;;;;;6.50;2.70;;;14.80;99.90;;;;;;4996691;28;20193;-65
2023/07/31 02:39:29;;;;;;;4.20;3.00;;;14.80;99.90;;;;;;4986437;28;20203;-67
2023/07/31 02:41:56;;;;;;;4.63;2.13;;;14.80;99.90;;;;;;4991329;28;20748;-65
2023/07/31 02:44:24;;;;;;;3.47;2.37;;;14.80;99.90;;;;;;4999682;28;20907;-68
2023/07/31 02:46:50;;;;;;;5.97;2.93;;;14.80;99.90;;;;;;5012412;28;20204;-67
2023/07/31 02:49:17;;;;;;;2.97;2.40;;;14.80;99.90;;;;;;4982430;28;20184;-67
2023/07/31 02:51:44;;;;;;;6.37;2.50;;;14.80;99.90;;;;;;4993068;28;20794;-67
2023/07/31 02:54:13;;;;;;;4.70;2.60;;;14.90;99.90;;;;;;4979955;28;20286;-66
2023/07/31 02:56:39;;;;;;;7.87;2.40;;;14.80;99.90;;;;;;4993854;28;20205;-67
2023/07/31 02:59:06;;;;;;;3.70;2.20;;;14.90;99.90;;;;;;4999027;28;20247;-65
2023/07/31 03:01:33;;;;;;;4.80;2.33;;;14.90;99.90;;;;;;4999545;28;20197;-66
2023/07/31 03:04:00;;;;;;;6.93;2.40;;;14.90;99.90;;;;;;4990231;28;20270;-65
2023/07/31 03:06:27;;;;;;;4.93;2.70;;;14.90;99.90;;;;;;4991414;28;20195;-67
2023/07/31 03:08:54;;;;;;;5.80;2.40;;;14.90;99.90;;;;;;4985266;28;20224;-65
2023/07/31 03:11:22;;;;;;;5.00;2.17;;;14.90;99.90;;;;;;4981685;28;20970;-67
2023/07/31 03:13:49;;;;;;;3.63;2.60;;;14.90;99.90;;;;;;5003479;28;20583;-66
2023/07/31 03:16:16;;;;;;;6.47;2.40;;;14.90;99.90;;;;;;4990601;28;20861;-66
2023/07/31 03:18:43;;;;;;;3.63;2.37;;;14.90;99.90;;;;;;4985273;28;20295;-67
2023/07/31 03:21:10;;;;;;;3.20;2.40;;;14.90;99.90;;;;;;4998725;28;20192;-65
2023/07/31 03:23:37;;;;;;;6.67;2.27;;;14.90;99.90;;;;;;4985733;28;20697;-68
2023/07/31 03:26:06;;;;;;;3.40;2.60;;;14.90;99.90;;;;;;4987987;28;20203;-66
2023/07/31 03:28:35;;;;;;;3.57;2.23;;;15.00;99.90;;;;;;4984259;28;20750;-67
2023/07/31 03:31:01;;;;;;;4.97;2.40;;;15.00;99.90;;;;;;4998328;28;20188;-65
2023/07/31 03:33:28;;;;;;;5.07;2.43;;;15.00;99.90;;;;;;4995355;28;20302;-65
2023/07/31 03:35:55;;;;;;;7.20;2.43;;;14.90;99.90;;;;;;5003177;28;20204;-65
2023/07/31 03:38:22;;;;;;;3.97;2.77;;;14.90;99.90;;;;;;5000333;28;20197;-67
2023/07/31 03:40:49;;;;;;;5.20;2.80;;;14.90;99.90;;;;;;4981392;28;20747;-66
2023/07/31 03:43:16;;;;;;;7.17;3.00;;;15.00;99.90;;;;;;4989671;28;20199;-67
2023/07/31 03:45:44;;;;;;;2.63;2.33;;;14.90;99.90;;;;;;4993742;28;20200;-68
2023/07/31 03:48:12;;;;;;;5.00;2.60;;;15.00;99.90;;;;;;5000897;28;20578;-66
2023/07/31 03:50:39;;;;;;;4.40;2.40;;;15.00;99.90;;;;;;5006800;28;20196;-66
2023/07/31 03:53:05;;;;;;;6.03;2.83;;;15.00;99.90;;;;;;4988232;28;20259;-65
2023/07/31 03:55:32;;;;;;;8.50;2.80;;;15.00;99.90;;;;;;4987138;28;20228;-67
2023/07/31 03:58:00;;;;;;;3.90;2.23;;;15.00;99.90;;;;;;4996931;28;20247;-65
2023/07/31 04:00:27;;;;;;;4.43;2.50;;;15.10;99.90;;;;;;4995720;28;20216;-67
2023/07/31 04:02:55;;;;;;;3.30;2.30;;;15.10;99.90;;;;;;5006689;28;20723;-65
2023/07/31 04:05:22;;;;;;;2.57;2.30;;;15.10;99.90;;;;;;4984107;28;20216;-67
2023/07/31 04:07:49;;;;;;;6.33;2.70;;;15.10;99.90;;;;;;5007023;28;20284;-67
2023/07/31 04:10:16;;;;;;;7.67;2.43;;;15.10;99.90;;;;;;4983364;28;20205;-67
2023/07/31 04:12:43;;;;;;;4.97;2.80;;;15.20;99.90;;;;;;5006769;28;20316;-67
2023/07/31 04:15:10;;;;;;;3.73;2.60;;;15.10;99.90;;;;;;5004711;28;20213;-65
2023/07/31 04:17:37;;;;;;;3.60;2.43;;;15.20;99.90;;;;;;4997884;28;20564;-67
2023/07/31 04:20:06;;;;;;;4.83;2.43;;;15.20;99.90;;;;;;4997436;28;20198;-65
2023/07/31 04:22:33;;;;;;;4.40;2.40;;;15.20;99.90;;;;;;5004423;28;20658;-67
2023/07/31 04:25:00;;;;;;;3.07;2.00;;;15.20;99.90;;;;;;5005347;28;20228;-66
2023/07/31 04:27:27;;;;;;;2.77;2.20;;;15.20;99.90;;;;;;4976621;28;20232;-65
2023/07/31 04:29:54;;;;;;;6.63;2.53;;;15.30;99.90;;;;;;5002112;28;20208;-66
2023/07/31 04:32:21;;;;;;;3.67;2.40;;;15.20;99.90;;;;;;5003387;28;21115;-67
2023/07/31 04:34:47;;;;;;;3.17;2.30;;;15.30;99.90;;;;;;5007445;28;20234;-67
2023/07/31 04:37:15;;;;;;;3.97;2.43;;;15.20;99.90;;;;;;4996377;28;20212;-68
2023/07/31 04:39:42;;;;;;;3.67;2.47;;;15.30;99.90;;;;;;4981284;28;20228;-65
2023/07/31 04:42:09;;;;;;;2.63;2.43;;;15.30;99.90;;;;;;4980743;28;20212;-65
2023/07/31 04:44:36;;;;;;;4.20;2.53;;;15.30;99.90;;;;;;4995954;28;20220;-67
2023/07/31 04:47:03;;;;;;;3.67;2.50;;;15.30;99.90;;;;;;4999656;28;20201;-66
2023/07/31 04:49:30;;;;;;;4.07;2.30;;;15.30;99.90;;;;;;4995007;28;20633;-67
2023/07/31 04:51:57;;;;;;;4.07;2.20;;;15.30;99.90;;;;;;4982698;28;20890;-66
2023/07/31 04:54:25;;;;;;;2.27;2.00;;;15.30;99.90;;;;;;4994944;28;20221;-65
2023/07/31 04:56:52;;;;;;;3.33;2.03;;;15.40;99.90;;;;;;4978027;28;20213;-68
2023/07/31 04:59:19;;;;;;;2.23;2.03;;;15.40;99.90;;;;;;5001506;28;20252;-66
2023/07/31 05:01:46;;;;;;;2.20;2.00;;;15.40;99.90;;;;;;5002524;28;20924;-68
2023/07/31 05:04:14;;;;;;;3.67;1.80;;;15.40;99.90;;;;;;4992420;28;20908;-67
2023/07/31 05:06:41;;;;;;;2.07;1.93;;;15.40;99.90;;;;;;5000428;28;20206;-68
2023/07/31 05:09:09;;;;;;;2.43;2.10;;;15.40;99.90;;;;;;5000542;28;20216;-68
2023/07/31 05:11:37;;;;;;;3.00;1.70;;;15.50;99.90;;;;;;4993240;28;20251;-65
2023/07/31 05:14:04;;;;;;;1.80;1.70;;;15.40;99.90;;;;;;4986148;28;20633;-67
2023/07/31 05:16:31;;;;;;;3.10;1.63;;;15.40;99.90;;;;;;4985500;28;20204;-66
2023/07/31 05:18:58;;;;;;;2.03;1.90;;;15.50;99.90;;;;;;4998671;28;20281;-66
2023/07/31 05:21:25;;;;;;;3.43;2.00;;;15.50;99.90;;;;;;4998221;28;20696;-64
2023/07/31 05:23:51;;;;;;;2.27;1.80;;;15.50;99.90;;;;;;4996919;28;20902;-66
2023/07/31 05:26:18;;;;;;;3.47;1.77;;;15.50;99.90;;;;;;5004295;28;20196;-63
2023/07/31 05:28:46;;;;;;;2.03;1.50;;;15.50;99.90;;;;;;4972599;28;20233;-66
2023/07/31 05:31:13;;;;;;;1.60;1.47;;;15.50;99.90;;;;;;5000297;28;20568;-65
2023/07/31 05:33:40;;;;;;;1.70;1.60;;;15.50;99.90;;;;;;5000834;28;20932;-66
2023/07/31 05:36:07;;;;;;;1.40;1.30;;;15.50;99.90;;;;;;5004433;28;20197;-67
2023/07/31 05:38:34;;;;;;;1.70;1.60;;;15.50;99.90;;;;;;4987121;28;20266;-67
2023/07/31 05:41:01;;;;;;;1.37;1.27;;;15.50;99.90;;;;;;4998333;28;20598;-67
2023/07/31 05:43:27;;;;;;;1.70;1.60;;;15.50;99.90;;;;;;4994773;28;20216;-65
2023/07/31 05:45:55;;;;;;;2.20;1.50;;;15.50;99.90;;;;;;4986922;28;20743;-65
2023/07/31 05:48:22;;;;;;;2.50;1.60;;;15.50;99.90;;;;;;4992124;28;20213;-64
2023/07/31 05:50:49;;;;;;;2.10;1.90;;;15.50;99.90;;;;;;4995501;28;20216;-65
2023/07/31 05:53:16;;;;;;;1.77;1.67;;;15.50;99.90;;;;;;4990926;28;20562;-64
2023/07/31 05:55:43;;;;;;;1.40;1.30;;;15.50;99.90;;;;;;4997753;28;20590;-67
2023/07/31 05:58:10;;;;;;;1.50;1.40;;;15.50;99.90;;;;;;4995081;28;20197;-64
2023/07/31 06:00:37;;;;;;;1.57;1.47;;;15.50;99.90;;;;;;4976305;28;21175;-66
2023/07/31 06:03:05;;;;;;;3.87;1.43;;;15.50;99.90;;;;;;4994194;28;20213;-66
2023/07/31 06:05:32;;;;;;;1.70;1.60;;;15.60;99.90;;;;;;4992388;28;20225;-67
2023/07/31 06:07:59;;;;;;;1.70;1.47;;;15.60;99.90;;;;;;5003210;28;20271;-68
2023/07/31 06:10:26;;;;;;;3.27;1.40;;;15.60;99.90;;;;;;4989390;28;20207;-66
2023/07/31 06:12:53;;;;;;;1.60;1.50;;;15.60;99.90;;;;;;4997674;28;20207;-67
2023/07/31 06:15:21;;;;;;;1.57;1.40;;;15.70;99.90;;;;;;4976573;28;20228;-64
2023/07/31 06:17:48;;;;;;;2.50;1.30;;;15.70;99.90;;;;;;4994354;28;20715;-66
2023/07/31 06:20:16;;;;;;;1.90;1.30;;;15.70;99.90;;;;;;4994983;28;20647;-65
2023/07/31 06:22:43;;;;;;;1.87;1.33;;;15.70;99.90;;;;;;4996092;28;20677;-67
2023/07/31 06:25:10;;;;;;;1.30;1.20;;;15.70;99.90;;;;;;4990027;28;20220;-65
2023/07/31 06:27:37;;;;;;;1.30;1.20;;;15.60;99.90;;;;;;4983495;28;20449;-66
2023/07/31 06:30:04;;;;;;;2.47;1.23;;;15.60;99.90;;;;;;4992412;28;20216;-66
2023/07/31 06:32:31;;;;;;;1.40;1.30;;;15.70;99.90;;;;;;4976638;28;21001;-66
2023/07/31 06:34:58;;;;;;;1.30;1.20;;;15.70;99.90;;;;;;4984298;28;20610;-67
2023/07/31 06:37:26;;;;;;;1.83;1.50;;;15.70;99.90;;;;;;4993787;28;21516;-67
2023/07/31 06:39:53;;;;;;;1.63;1.53;;;15.70;99.90;;;;;;4982919;28;20201;-68
2023/07/31 06:42:20;;;;;;;1.50;1.40;;;15.70;99.90;;;;;;4984955;28;20276;-67
2023/07/31 06:44:47;;;;;;;1.30;1.20;;;15.70;99.90;;;;;;4994082;28;20588;-66
2023/07/31 06:47:29;;;;;;;3.73;1.27;;;15.70;99.90;;;;;;4991109;28;20283;-68
2023/07/31 06:49:57;;;;;;;1.50;1.40;;;15.70;99.90;;;;;;4994426;28;20240;-68
2023/07/31 06:52:23;;;;;;;1.60;1.47;;;15.70;99.90;;;;;;4993016;28;20684;-68
2023/07/31 06:55:04;;;;;;;1.70;1.43;;;15.70;99.90;;;;;;4992966;28;20231;-68
2023/07/31 06:57:31;;;;;;;1.50;1.40;;;15.70;99.90;;;;;;4998466;28;20291;-66
2023/07/31 06:59:57;;;;;;;1.63;1.53;;;15.80;99.90;;;;;;4992423;28;20217;-67
2023/07/31 07:02:24;;;;;;;1.40;1.30;;;15.80;99.90;;;;;;4999884;28;20247;-68
2023/07/31 07:04:51;;;;;;;1.47;1.37;;;15.80;99.90;;;;;;4975010;28;20240;-67
2023/07/31 07:07:19;;;;;;;1.70;1.60;;;15.70;99.90;;;;;;5001137;28;20558;-65
2023/07/31 07:09:47;;;;;;;1.47;1.30;;;15.70;99.90;;;;;;4995566;28;20995;-67
2023/07/31 07:12:15;;;;;;;1.53;1.43;;;15.80;99.90;;;;;;5002228;28;20270;-67
2023/07/31 07:14:42;;;;;;;1.60;1.50;;;15.80;99.90;;;;;;4998624;28;20970;-66
2023/07/31 07:17:09;;;;;;;1.70;1.60;;;15.80;99.90;;;;;;4994283;28;20202;-67
2023/07/31 07:19:35;;;;;;;2.00;1.90;;;15.90;99.90;;;;;;4997543;28;20258;-67
2023/07/31 07:22:02;;;;;;;2.10;1.80;;;15.90;99.90;;;;;;5005995;28;20188;-67
2023/07/31 07:24:29;;;;;;;1.73;1.63;;;15.90;99.90;;;;;;4994561;28;20286;-67
2023/07/31 07:26:56;;;;;;;2.00;1.80;;;15.90;99.90;;;;;;4997742;28;20679;-66
2023/07/31 07:29:24;;;;;;;1.70;1.60;;;15.90;99.90;;;;;;4998381;28;20217;-67
2023/07/31 07:31:51;;;;;;;1.70;1.60;;;15.90;99.90;;;;;;5006083;28;20240;-67
2023/07/31 07:34:18;;;;;;;1.70;1.50;;;16.00;99.90;;;;;;5003735;28;20212;-64
2023/07/31 07:36:44;;;;;;;1.40;1.37;;;16.00;99.90;;;;;;5002744;28;20680;-67
2023/07/31 07:39:12;;;;;;;1.57;1.47;;;16.00;99.90;;;;;;4999861;28;20231;-64
2023/07/31 07:41:38;;;;;;;1.37;1.27;;;16.00;99.90;;;;;;5003185;28;20247;-68
2023/07/31 07:44:05;;;;;;;2.30;1.23;;;16.00;99.90;;;;;;5005519;28;20212;-65
2023/07/31 07:46:33;;;;;;;3.83;1.40;;;16.10;99.90;;;;;;5003216;28;20653;-69
2023/07/31 07:49:01;;;;;;;1.10;1.10;;;16.00;99.90;;;;;;5005979;28;20212;-68
2023/07/31 07:51:29;;;;;;;1.53;1.43;;;16.10;99.90;;;;;;4997436;28;20286;-68
2023/07/31 07:53:57;;;;;;;1.27;1.27;;;16.10;99.90;;;;;;5005181;28;20212;-68
2023/07/31 07:56:24;;;;;;;1.60;1.33;;;16.10;99.90;;;;;;5002893;28;20196;-69
2023/07/31 07:58:51;;;;;;;1.23;1.17;;;16.20;99.90;;;;;;5005171;28;20270;-69
2023/07/31 08:01:18;;;;;;;1.20;1.07;;;16.20;99.90;;;;;;5002053;28;20212;-65
2023/07/31 08:03:46;;;;;;;1.10;1.00;;;16.20;99.90;;;;;;4997494;28;20236;-68
2023/07/31 08:06:13;;;;;;;1.83;1.20;;;16.20;99.90;;;;;;4991861;28;20220;-65
2023/07/31 08:08:40;;;;;;;1.30;1.30;;;16.30;99.90;;;;;;5000560;28;20213;-68
2023/07/31 08:11:07;;;;;;;1.33;1.23;;;16.40;99.90;;;;;;4995078;28;20196;-65
2023/07/31 08:13:36;;;;;;;1.40;1.30;;;16.40;99.90;;;;;;5023097;28;20969;-69
2023/07/31 08:16:03;;;;;;;1.70;1.60;;;16.40;99.90;;;;;;5019895;28;20230;-66
2023/07/31 08:18:32;;;;;;;1.47;1.30;;;16.40;99.90;;;;;;5022986;28;20192;-68
2023/07/31 08:21:00;;;;;;;2.03;1.70;;;16.50;99.90;;;;;;5020932;28;20238;-67
2023/07/31 08:23:27;;;;;;;1.30;1.30;;;16.40;99.90;;;;;;4990769;28;20205;-67
2023/07/31 08:25:54;;;;;;;1.73;1.60;;;16.50;99.90;;;;;;5004903;28;20205;-68
2023/07/31 08:28:20;;;;;;;1.50;1.40;;;16.50;99.90;;;;;;4976498;28;20259;-65
2023/07/31 08:30:47;;;;;;;1.40;1.30;;;16.60;99.90;;;;;;5007482;28;20216;-68
2023/07/31 08:33:14;;;;;;;2.20;1.20;;;16.60;99.90;;;;;;5006903;28;20727;-65
2023/07/31 08:35:41;;;;;;;1.73;1.63;;;16.60;99.90;;;;;;5008038;28;20263;-68
2023/07/31 08:38:09;;;;;;;2.10;2.00;;;16.60;99.90;;;;;;4998861;28;20205;-64
2023/07/31 08:40:38;;;;;;;2.00;1.70;;;16.50;99.90;;;;;;5003845;28;20196;-68
2023/07/31 08:43:05;;;;;;;3.10;2.40;;;16.50;99.90;;;;;;5008786;28;20599;-65
2023/07/31 08:45:33;;;;;;;2.90;2.00;;;16.60;99.90;;;;;;5003933;28;20223;-67
2023/07/31 08:48:00;;;;;;;1.97;1.77;;;16.60;99.90;;;;;;5008069;28;20259;-68
2023/07/31 08:50:27;;;;;;;2.30;2.10;;;16.70;99.90;;;;;;4993944;28;20247;-67
2023/07/31 08:52:54;;;;;;;2.40;2.20;;;16.70;99.90;;;;;;5006444;28;20197;-68
2023/07/31 08:55:24;;;;;;;1.93;1.70;;;16.80;99.90;;;;;;5005523;28;20720;-65
2023/07/31 08:57:52;;;;;;;2.10;1.90;;;16.90;99.90;;;;;;5009748;28;20192;-68
2023/07/31 09:00:23;;;;;;;1.70;1.53;;;16.90;99.90;;;;;;5005579;28;20196;-66
2023/07/31 09:02:57;;;;;;;1.73;1.60;;;16.90;99.90;;;;;;5003090;28;20200;-68
2023/07/31 09:05:26;;;;;;;2.60;2.27;;;16.80;99.90;;;;;;5004256;28;20215;-67
2023/07/31 09:07:53;;;;;;;3.40;3.10;;;16.80;99.90;;;;;;5009538;28;20196;-69
2023/07/31 09:10:22;;;;;;;3.33;2.63;;;16.80;99.90;;;;;;5013655;28;20224;-65
2023/07/31 09:12:50;;;;;;;1.90;1.73;;;16.90;99.90;;;;;;5004375;28;20571;-68
2023/07/31 09:15:17;;;;;;;1.40;1.30;;;16.90;99.90;;;;;;4997941;28;20221;-64
2023/07/31 09:17:44;;;;;;;1.77;1.50;;;16.90;99.90;;;;;;5008210;28;20200;-68
2023/07/31 09:20:15;;;;;;;1.53;1.43;;;16.90;99.90;;;;;;5007499;28;20679;-65
2023/07/31 09:22:43;;;;;;;1.70;1.20;;;16.90;99.90;;;;;;5008881;28;20693;-67
2023/07/31 09:25:22;;;;;;;1.70;1.60;;;17.00;99.90;;;;;;4991157;28;20235;-66
2023/07/31 09:27:52;;;;;;;2.70;2.20;;;17.00;99.90;;;;;;4994805;28;20287;-69
2023/07/31 09:30:19;;;;;;;1.30;1.20;;;17.00;99.90;;;;;;5002768;28;20240;-64
2023/07/31 09:32:47;;;;;;;2.37;1.47;;;17.10;99.90;;;;;;4999100;28;20243;-68
2023/07/31 09:35:19;;;;;;;1.20;1.10;;;17.10;99.90;;;;;;5006563;28;20795;-66
2023/07/31 09:37:50;;;;;;;1.20;1.10;;;17.10;99.90;;;;;;5009239;28;20680;-65
2023/07/31 09:40:28;;;;;;;1.37;1.00;;;17.00;99.90;;;;;;4994524;28;20243;-65
2023/07/31 09:42:59;;;;;;;1.43;1.03;;;17.10;99.90;;;;;;5008538;28;20208;-67
2023/07/31 09:45:26;;;;;;;1.63;1.30;;;17.20;99.90;;;;;;4988074;28;20217;-68
2023/07/31 09:47:53;;;;;;;1.80;1.60;;;17.10;99.90;;;;;;5008014;28;20220;-68
2023/07/31 09:50:22;;;;;;;1.40;0.90;;;17.20;99.90;;;;;;5001878;28;20232;-65
2023/07/31 09:52:49;;;;;;;2.17;1.40;;;17.00;99.90;;;;;;5005118;28;20324;-67
2023/07/31 09:55:16;;;;;;;2.37;1.50;;;17.00;99.90;;;;;;4993736;28;20290;-64
2023/07/31 09:57:45;;;;;;;1.60;1.50;;;17.10;99.90;;;;;;5007483;28;20211;-68
2023/07/31 10:00:14;;;;;;;0.80;0.80;;;17.10;99.90;;;;;;5005903;28;20239;-66
2023/07/31 10:02:42;;;;;;;1.70;1.60;;;17.10;99.90;;;;;;5001540;28;20236;-66
2023/07/31 10:05:09;;;;;;;2.20;0.90;;;17.00;99.90;;;;;;5002789;28;20216;-66
2023/07/31 10:07:39;;;;;;;0.70;0.70;;;17.00;99.90;;;;;;4997259;28;20189;-68
2023/07/31 10:10:08;;;;;;;1.10;1.00;;;16.90;99.90;;;;;;4993822;28;20647;-65
2023/07/31 10:12:35;;;;;;;1.47;0.70;;;16.90;99.90;;;;;;4986390;28;20211;-69
2023/07/31 10:15:04;;;;;;;2.10;0.87;;;16.80;99.90;;;;;;4982375;28;20606;-68
2023/07/31 10:17:32;;;;;;;1.30;0.73;;;16.90;99.90;;;;;;4985220;28;20196;-68
2023/07/31 10:20:01;;;;;;;1.17;0.67;;;16.80;99.90;;;;;;4986663;28;20254;-68
2023/07/31 10:22:28;;;;;;;1.80;0.90;;;16.70;99.90;;;;;;4982345;28;20209;-67
2023/07/31 10:24:58;;;;;;;0.90;0.90;;;16.80;99.90;;;;;;4985816;28;20221;-67
2023/07/31 10:27:25;;;;;;;1.27;0.70;;;16.90;99.90;;;;;;4977208;28;20208;-68
2023/07/31 10:29:53;;;;;;;1.40;0.93;;;16.90;99.90;;;;;;4986063;28;20569;-68
2023/07/31 10:32:23;;;;;;;1.00;0.73;;;16.80;99.90;;;;;;4982424;28;20248;-64
2023/07/31 10:34:51;;;;;;;1.47;1.37;;;16.90;99.90;;;;;;5004503;28;20283;-67
2023/07/31 10:37:24;;;;;;;0.83;0.70;;;16.80;99.90;;;;;;4988281;28;20216;-64
2023/07/31 10:40:02;;;;;;;1.00;0.90;;;16.80;99.90;;;;;;5001622;28;20192;-68
2023/07/31 10:42:34;;;;;;;0.87;0.80;;;16.80;99.90;;;;;;5001404;28;20203;-68
2023/07/31 10:45:02;;;;;;;1.80;0.90;;;16.70;99.90;;;;;;5005410;28;20219;-68
2023/07/31 10:47:30;;;;;;;0.67;0.60;;;16.70;99.90;;;;;;5008596;28;20192;-68
2023/07/31 10:50:19;;;;;;;0.90;0.63;;;16.80;99.90;;;;;;4988972;28;20213;-66
2023/07/31 10:52:50;;;;;;;1.03;0.70;;;16.70;99.90;;;;;;4998027;28;20219;-69
2023/07/31 10:55:31;;;;;;;2.07;0.80;;;16.70;99.90;;;;;;5003423;28;20283;-65
2023/07/31 10:58:07;;;;;;;1.00;0.90;;;16.70;99.90;;;;;;5006357;28;20793;-68
2023/07/31 11:00:34;;;;;;;1.00;0.83;;;16.90;99.90;;;;;;4984451;28;20188;-68
2023/07/31 11:03:04;;;;;;;0.73;0.60;;;16.80;99.90;;;;;;4997662;28;20279;-68
2023/07/31 11:05:49;;;;;;;0.60;0.50;;;16.80;99.90;;;;;;4995048;28;20213;-68
2023/07/31 11:08:19;;;;;;;0.70;0.63;;;16.80;99.90;;;;;;5004170;28;20565;-65
2023/07/31 11:10:46;;;;;;;0.87;0.47;;;16.80;99.90;;;;;;4989228;28;20766;-68
2023/07/31 11:13:13;;;;;;;0.70;0.60;;;16.80;99.90;;;;;;4988232;28;20608;-65
2023/07/31 11:15:40;;;;;;;0.90;0.40;;;16.90;99.90;;;;;;4999610;28;20220;-69
2023/07/31 11:18:10;;;;;;;0.40;0.33;;;16.90;99.90;;;;;;5001707;28;20200;-65
2023/07/31 11:20:38;;;;;;;0.73;0.40;;;16.80;99.90;;;;;;5007506;28;20233;-68
2023/07/31 11:23:08;;;;;;;0.80;0.20;;;16.70;99.90;;;;;;5005854;28;20197;-66
2023/07/31 11:25:35;;;;;;;0.27;0.13;;;16.70;99.90;;;;;;4982102;28;21002;-67
2023/07/31 11:28:05;;;;;;;0.97;0.30;;;16.60;99.90;;;;;;4992852;28;20672;-68
2023/07/31 11:30:31;;;;;;;0.50;0.40;;;16.60;99.90;;;;;;4980297;28;20292;-67
2023/07/31 11:32:58;;;;;;;1.00;0.40;;;16.60;99.90;;;;;;4986291;28;20192;-68
2023/07/31 11:35:27;;;;;;;0.43;0.43;;;16.50;99.90;;;;;;4994608;28;20787;-69
2023/07/31 11:37:54;;;;;;;0.43;0.30;;;16.50;99.90;;;;;;4993008;28;20205;-67
2023/07/31 11:40:21;;;;;;;0.93;0.50;;;16.50;99.90;;;;;;5003565;28;20564;-68
2023/07/31 11:42:47;;;;;;;1.67;0.40;;;16.40;99.90;;;;;;4980564;28;20197;-67
2023/07/31 11:45:15;;;;;;;1.00;0.70;;;16.40;99.90;;;;;;4995577;28;20228;-68
2023/07/31 11:47:42;;;;;;;1.73;0.50;;;16.40;99.90;;;;;;5002606;28;20197;-65
2023/07/31 11:50:12;;;;;;;0.53;0.53;;;16.50;99.90;;;;;;4988802;28;20258;-68
2023/07/31 11:52:45;;;;;;;1.07;0.63;;;16.50;99.90;;;;;;5001552;28;20200;-66
2023/07/31 11:55:12;;;;;;;1.27;0.47;;;16.50;99.90;;;;;;5005820;28;20212;-67
2023/07/31 11:57:41;;;;;;;0.50;0.50;;;16.50;99.90;;;;;;4999303;28;20237;-65
2023/07/31 12:00:10;;;;;;;0.50;0.50;;;16.50;99.90;;;;;;5003340;28;20201;-69
2023/07/31 12:02:39;;;;;;;2.17;0.83;;;16.50;99.90;;;;;;4995986;28;20251;-65
2023/07/31 12:05:07;;;;;;;0.63;0.63;;;16.50;99.90;;;;;;4997076;28;20220;-68
2023/07/31 12:07:49;;;;;;;1.23;0.50;;;16.50;99.90;;;;;;5008308;28;20205;-66
2023/07/31 12:10:30;;;;;;;1.00;0.70;;;16.60;99.90;;;;;;5009897;28;20232;-69
2023/07/31 12:12:59;;;;;;;0.60;0.40;;;16.80;99.90;;;;;;5003058;28;20929;-66
2023/07/31 12:15:34;;;;;;;0.50;0.50;;;16.90;99.90;;;;;;5006138;28;20224;-68
2023/07/31 12:18:01;;;;;;;1.70;0.47;;;16.80;99.90;;;;;;5007655;28;20908;-68
2023/07/31 12:20:28;;;;;;;0.50;0.50;;;16.90;99.90;;;;;;5007575;28;20212;-69
2023/07/31 12:22:58;;;;;;;2.03;0.50;;;16.90;99.90;;;;;;5005810;28;20197;-68
2023/07/31 12:25:30;;;;;;;0.90;0.40;;;17.00;99.90;;;;;;5005573;28;20319;-68
2023/07/31 12:27:57;;;;;;;0.43;0.43;;;17.10;99.90;;;;;;5004942;28;20792;-68
2023/07/31 12:30:28;;;;;;;0.40;0.40;;;17.00;99.90;;;;;;5009090;28;20571;-69
2023/07/31 12:32:55;;;;;;;0.33;0.30;;;17.00;99.90;;;;;;5006430;28;20211;-68
2023/07/31 12:35:22;;;;;;;0.40;0.30;;;17.00;99.90;;;;;;5008656;28;20217;-69
2023/07/31 12:37:49;;;;;;;0.77;0.40;;;17.00;99.90;;;;;;4998206;28;20204;-65
2023/07/31 12:40:17;;;;;;;0.30;0.30;;;17.00;99.90;;;;;;5003901;28;20258;-69
2023/07/31 12:42:44;;;;;;;0.37;0.30;;;17.00;99.90;;;;;;5002045;28;20200;-65
2023/07/31 12:45:11;;;;;;;0.80;0.60;;;17.00;99.90;;;;;;4982890;28;20748;-69
2023/07/31 12:47:38;;;;;;;0.60;0.60;;;17.00;99.90;;;;;;5000731;28;20251;-66
2023/07/31 12:50:05;;;;;;;0.90;0.80;;;17.10;99.90;;;;;;4996131;28;20213;-68
2023/07/31 12:52:33;;;;;;;1.27;0.70;;;17.20;99.90;;;;;;5005821;28;20210;-65